ADDS METAR Data INFO
IDs: Format: Raw Decoded Include TAF

Data at: 2318 UTC 15 Jul 2018

KHAF 152315Z AUTO 26007KT 8SM BKN013 17/13 A3001 RMK AO2
KHAF 152300Z AUTO 29007KT 7SM BKN013 16/13 A3001 RMK AO2
KHAF 152255Z AUTO 28006KT 8SM BKN013 16/13 A3001 RMK AO2
KHAF 152240Z AUTO 28007KT 10SM OVC013 17/13 A3002 RMK AO2
KHAF 152235Z AUTO 27007KT 9SM OVC013 17/13 A3002 RMK AO2
KHAF 152220Z AUTO 32007KT 8SM OVC013 17/13 A3002 RMK AO2
KHAF 152215Z AUTO 28006KT 250V310 9SM OVC013 17/13 A3002 RMK AO2
KHAF 152200Z AUTO 31007KT 10SM OVC013 17/13 A3002 RMK AO2
KHAF 152155Z AUTO 29006KT 9SM OVC013 17/13 A3003 RMK AO2
KHAF 152140Z AUTO 31008KT 10SM OVC013 17/13 A3002 RMK AO2
KHAF 152135Z AUTO 29006KT 9SM OVC013 17/13 A3003 RMK AO2
KHAF 152120Z AUTO 28006KT 10SM OVC013 17/13 A3003 RMK AO2
KHAF 152115Z AUTO 26007KT 10SM OVC013 17/13 A3003 RMK AO2
KHAF 152100Z AUTO 31007KT 9SM OVC013 16/13 A3003 RMK AO2
KHAF 152055Z AUTO 27008KT 9SM OVC013 17/13 A3003 RMK AO2
KHAF 152040Z AUTO 29008KT 250V310 8SM OVC013 16/13 A3003 RMK AO2
KHAF 152035Z AUTO 28008KT 8SM OVC013 17/13 A3003 RMK AO2
KHAF 152020Z AUTO 32006KT 9SM OVC013 16/13 A3003 RMK AO2
KHAF 152015Z AUTO 29006KT 10SM OVC013 16/13 A3003 RMK AO2
KHAF 152000Z AUTO 32005KT 10SM OVC013 16/13 A3004 RMK AO2
KHAF 151955Z AUTO 30006KT 10SM OVC013 16/13 A3004 RMK AO2
KHAF 151940Z AUTO 29005KT 9SM OVC011 15/13 A3004 RMK AO2
KHAF 151935Z AUTO 30004KT 9SM OVC011 15/13 A3004 RMK AO2
KHAF 151920Z AUTO 29003KT 9SM BKN008 OVC013 15/13 A3004 RMK AO2
KHAF 151915Z AUTO 28003KT 9SM OVC008 15/13 A3004 RMK AO2
KHAF 151900Z AUTO 25003KT 10SM OVC008 15/13 A3004 RMK AO2
KHAF 151855Z AUTO 28004KT 10SM OVC008 15/13 A3004 RMK AO2
KHAF 151840Z AUTO 30003KT 9SM OVC008 14/13 A3005 RMK AO2
KHAF 151835Z AUTO 00000KT 10SM OVC008 14/13 A3005 RMK AO2
KHAF 151820Z AUTO 00000KT 9SM OVC008 14/13 A3005 RMK AO2
KHAF 151815Z AUTO 23004KT 9SM OVC008 14/13 A3004 RMK AO2
KHAF 151800Z AUTO 23003KT 10SM OVC008 14/13 A3004 RMK AO2
KHAF 151755Z AUTO 00000KT 10SM OVC006 14/13 A3004 RMK AO2
KHAF 151740Z AUTO 00000KT 10SM OVC006 14/13 A3004 RMK AO2
KHAF 151735Z AUTO 30003KT 9SM OVC006 14/13 A3004 RMK AO2
KHAF 151720Z AUTO 26003KT 9SM OVC006 14/13 A3004 RMK AO2
KHAF 151715Z AUTO 00000KT 9SM OVC006 14/13 A3003 RMK AO2
KHAF 151700Z AUTO 21003KT 10SM OVC006 14/12 A3003 RMK AO2
KHAF 151655Z AUTO 00000KT 10SM OVC006 14/12 A3003 RMK AO2
KHAF 151640Z AUTO 9SM OVC006 13/12 A3003 RMK AO2
KHAF 151635Z AUTO 00000KT 8SM OVC006 14/12 A3003 RMK AO2
KHAF 151620Z AUTO 16003KT 10SM OVC006 14/13 A3003 RMK AO2
KHAF 151615Z AUTO 00000KT 10SM OVC006 13/12 A3004 RMK AO2
KHAF 151600Z AUTO 00000KT 9SM OVC006 13/12 A3004 RMK AO2
KHAF 151555Z AUTO 00000KT 9SM OVC006 13/12 A3004 RMK AO2
KHAF 151540Z AUTO 36003KT 10SM OVC006 13/12 A3004 RMK AO2
KHAF 151535Z AUTO 00000KT 10SM OVC006 13/12 A3004 RMK AO2
KHAF 151520Z AUTO 27004KT 9SM OVC006 13/12 A3004 RMK AO2
KHAF 151515Z AUTO 28004KT 8SM OVC006 13/12 A3003 RMK AO2
KHAF 151500Z AUTO 10SM OVC006 13/12 A3003 RMK AO2
KHAF 151455Z AUTO 32004KT 9SM OVC006 13/12 A3003 RMK AO2
KHAF 151440Z AUTO 28003KT 9SM BKN008 13/12 A3003 RMK AO2
KHAF 151435Z AUTO 30004KT 9SM BKN008 13/13 A3003 RMK AO2
KHAF 151420Z AUTO 26003KT 1 3/4SM BR BKN004 BKN008 13/13 A3002 RMK AO2
KHAF 151415Z AUTO 29003KT 1 1/4SM BR BKN004 13/13 A3002 RMK AO2
KHAF 151400Z AUTO 31003KT 1 1/4SM BR OVC003 13/13 A3002 RMK AO2
KHAF 151355Z AUTO 00000KT 3/4SM BR OVC003 13/13 A3002 RMK AO2
KHAF 151340Z AUTO 00000KT 1SM BR OVC003 13/13 A3001 RMK AO2
KHAF 151335Z AUTO 00000KT 1SM BR OVC003 13/12 A3001 RMK AO2
KHAF 151320Z AUTO 00000KT 3/4SM BR OVC004 13/13 A3001 RMK AO2
KHAF 151315Z AUTO 00000KT 1SM BR OVC004 13/12 A3001 RMK AO2
KHAF 151300Z AUTO 00000KT 2 1/2SM BR OVC005 13/12 A3001 RMK AO2
KHAF 151255Z AUTO 00000KT 2SM BR OVC005 13/12 A3001 RMK AO2
KHAF 151240Z AUTO 00000KT 5SM BR OVC005 13/12 A3000 RMK AO2
KHAF 151235Z AUTO 00000KT 3SM BR OVC005 13/12 A3000 RMK AO2
KHAF 151220Z AUTO 00000KT 7SM OVC005 13/12 A3000 RMK AO2
KHAF 151215Z AUTO 00000KT 8SM OVC006 13/12 A3000 RMK AO2
KHAF 151200Z AUTO 00000KT 10SM A2999 RMK AO2
KHAF 151155Z AUTO 00000KT 10SM BKN005 OVC010 13/12 A3000 RMK AO2
KHAF 151140Z AUTO 29003KT 1 1/4SM BR OVC005 13/12 A3000 RMK AO2
KHAF 151135Z AUTO 29004KT 1 1/2SM BR OVC005 13/12 A3000 RMK AO2
KHAF 151120Z AUTO 31004KT 7SM OVC006 13/12 A3000 RMK AO2
KHAF 151115Z AUTO 02003KT 7SM OVC006 13/12 A3000 RMK AO2
KHAF 151100Z AUTO 00000KT 3SM BR OVC006 13/12 A3001 RMK AO2
KHAF 151055Z AUTO 00000KT 3SM BR OVC006 13/12 A3001 RMK AO2
KHAF 151040Z AUTO 32004KT 10SM OVC006 13/12 A3001 RMK AO2
KHAF 151035Z AUTO 00000KT 10SM OVC006 13/12 A3001 RMK AO2
KHAF 151020Z AUTO 33004KT 7SM OVC005 13/12 A3001 RMK AO2
KHAF 151015Z AUTO 33004KT 5SM BR OVC005 13/12 A3001 RMK AO2
KHAF 151000Z AUTO 33003KT 3SM BR 13/12 A3001 RMK AO2
KHAF 150955Z AUTO 33004KT 4SM BR 13/12 A3002 RMK AO2
KHAF 150940Z AUTO 33005KT 3SM BR OVC004 13/12 A3001 RMK AO2
KHAF 150935Z AUTO 33006KT 1 3/4SM -RA OVC004 13/12 A3001 RMK AO2
KHAF 150920Z AUTO 33003KT 2SM BR OVC004 13/12 A3002 RMK AO2
KHAF 150915Z AUTO 33003KT 3SM BR OVC005 13/12 A3002 RMK AO2
KHAF 150900Z AUTO 34003KT 5SM BR OVC005 13/12 A3002 RMK AO2
KHAF 150855Z AUTO 33004KT 4SM BR OVC005 13/12 A3002 RMK AO2
KHAF 150840Z AUTO 34004KT 4SM BR OVC004 13/12 A3003 RMK AO2
KHAF 150835Z AUTO 34004KT 2 1/2SM BR OVC003 13/12 A3003 RMK AO2
KHAF 150820Z AUTO 00000KT 1SM BR OVC003 13/12 A3003 RMK AO2
KHAF 150815Z AUTO 00000KT 1SM BR OVC003 13/12 A3003 RMK AO2
KHAF 150800Z AUTO 00000KT 1 3/4SM BR OVC004 13/12 A3003 RMK AO2
KHAF 150755Z AUTO 00000KT 2 1/2SM BR OVC004 13/12 A3003 RMK AO2
KHAF 150740Z AUTO 00000KT 3SM BR OVC005 13/12 A3003 RMK AO2
KHAF 150735Z AUTO 35003KT 9SM OVC005 13/12 A3003 RMK AO2
KHAF 150720Z AUTO 00000KT 7SM OVC004 13/12 A3004 RMK AO2
KHAF 150715Z AUTO 32004KT 8SM OVC004 13/12 A3003 RMK AO2
KHAF 150700Z AUTO 30004KT 2 1/2SM BR OVC004 13/12 A3003 RMK AO2
KHAF 150655Z AUTO 31003KT 3SM BR OVC004 13/12 A3003 RMK AO2
KHAF 150640Z AUTO 29004KT 10SM OVC005 13/12 A3003 RMK AO2
KHAF 150635Z AUTO 29005KT 10SM OVC004 13/12 A3003 RMK AO2
KHAF 150620Z AUTO 34005KT 5SM BR OVC004 13/13 A3004 RMK AO2
KHAF 150615Z AUTO 32004KT 5SM BR OVC004 13/12 A3004 RMK AO2
KHAF 150600Z AUTO 35004KT 3SM BR OVC004 13/13 A3004 RMK AO2
KHAF 150555Z AUTO 36003KT 4SM BR OVC004 13/12 A3004 RMK AO2
KHAF 150535Z AUTO 33004KT 3SM BR OVC004 13/12 A3004 RMK AO2
KHAF 150520Z AUTO 32004KT 8SM OVC005 13/12 A3004 RMK AO2
KHAF 150515Z AUTO 32004KT 5SM BR OVC005 13/12 A3004 RMK AO2
KHAF 150500Z AUTO 36004KT 3SM BR OVC004 13/12 A3004 RMK AO2 VSBY 2V3
KHAF 150455Z AUTO 33005KT 4SM BR OVC004 13/12 A3004 RMK AO2
KHAF 150440Z AUTO 32006KT 5SM BR OVC003 13/13 A3004 RMK AO2
KHAF 150435Z AUTO 32006KT 2 1/2SM BR OVC003 13/13 A3004 RMK AO2
KHAF 150420Z AUTO 32005KT 4SM BR OVC004 13/13 A3003 RMK AO2
KHAF 150415Z AUTO 31004KT 5SM BR OVC004 13/13 A3003 RMK AO2
KHAF 150400Z AUTO 31006KT 3SM BR OVC003 13/13 A3003 RMK AO2
KHAF 150355Z AUTO 31007KT 3SM BR OVC003 13/13 A3003 RMK AO2
KHAF 150340Z AUTO 33006KT 2 1/2SM BR OVC003 13/13 A3003 RMK AO2
KHAF 150335Z AUTO 32007KT 1 1/2SM BR OVC003 13/13 A3003 RMK AO2
KHAF 150320Z AUTO 32007KT 1 1/2SM BR OVC003 13/13 A3003 RMK AO2
KHAF 150315Z AUTO 31007KT 2 1/2SM BR OVC003 13/13 A3003 RMK AO2
KHAF 150300Z AUTO 3SM BR OVC003 13/13 A3002 RMK AO2
KHAF 150255Z AUTO 3SM BR OVC003 13/13 A3002 RMK AO2 VSBY 2V5
KHAF 150240Z AUTO 34006KT 4SM BR OVC004 13/13 A3002 RMK AO2
KHAF 150235Z AUTO 32007KT 5SM BR OVC004 14/13 A3002 RMK AO2
KHAF 150220Z AUTO 32007KT 9SM OVC004 14/13 A3002 RMK AO2
KHAF 150215Z AUTO 32007KT 8SM OVC004 14/13 A3002 RMK AO2
KHAF 150200Z AUTO 34005KT 7SM OVC004 14/13 A3002 RMK AO2
KHAF 150155Z AUTO 33006KT 4SM BR OVC004 14/13 A3002 RMK AO2
KHAF 150140Z AUTO 33007KT 4SM BR OVC004 14/13 A3002 RMK AO2
KHAF 150135Z AUTO 34007KT 5SM BR OVC004 14/13 A3002 RMK AO2
KHAF 150120Z AUTO 31007KT 7SM OVC004 14/13 A3002 RMK AO2
KHAF 150115Z AUTO 31008KT 5SM BR OVC004 14/13 A3002 RMK AO2
KHAF 150100Z AUTO 32008KT 9SM OVC004 14/13 A3003 RMK AO2
KHAF 150055Z AUTO 32009KT 9SM OVC004 14/13 A3003 RMK AO2
KHAF 150040Z AUTO 33010KT 9SM OVC004 14/13 A3003 RMK AO2
KHAF 150035Z AUTO 33008KT 9SM OVC004 14/13 A3003 RMK AO2
KHAF 150020Z AUTO 31009KT 8SM OVC004 15/13 A3003 RMK AO2
KHAF 150015Z AUTO 31011KT 8SM OVC004 15/13 A3003 RMK AO2
KHAF 150000Z AUTO 32011KT 10SM OVC005 15/13 A3003 RMK AO2
KHAF 142355Z AUTO 33009KT 10SM OVC005 15/13 A3003 RMK AO2
KHAF 142340Z AUTO 32009KT 9SM BKN006 15/13 A3003 RMK AO2
KHAF 142335Z AUTO 31010KT 9SM BKN005 15/13 A3004 RMK AO2
KHAF 142320Z AUTO 32010KT 9SM BKN006 15/13 A3004 RMK AO2
KHAF 142315Z AUTO 31009KT 10SM SCT006 15/13 A3004 RMK AO2
KHAF 142300Z AUTO 31009KT 10SM SCT006 16/13 A3004 RMK AO2
KHAF 142255Z AUTO 32009KT 10SM FEW008 16/13 A3004 RMK AO2
KHAF 142240Z AUTO 31010KT 10SM FEW006 16/13 A3004 RMK AO2
KHAF 142235Z AUTO 30009KT 10SM FEW006 16/13 A3004 RMK AO2
KHAF 142220Z AUTO 31008KT 9SM FEW006 FEW010 16/13 A3005 RMK AO2
KHAF 142215Z AUTO 32010KT 9SM FEW010 17/13 A3005 RMK AO2
KHAF 142200Z AUTO 30009KT 10SM SCT008 17/13 A3005 RMK AO2
KHAF 142155Z AUTO 30009KT 10SM SCT008 16/13 A3006 RMK AO2
KHAF 142140Z AUTO 30009KT 10SM BKN008 16/13 A3007 RMK AO2
KHAF 142135Z AUTO 31008KT 10SM SCT008 15/13 A3007 RMK AO2
KHAF 142120Z AUTO 31008KT 10SM SCT008 SCT013 16/13 A3007 RMK AO2
KHAF 142115Z AUTO 31009KT 10SM SCT008 16/13 A3007 RMK AO2
KHAF 142100Z AUTO 30008KT 10SM SCT008 16/13 A3007 RMK AO2
KHAF 142055Z AUTO 33010KT 10SM SCT008 16/13 A3007 RMK AO2
KHAF 142040Z AUTO 31008KT 10SM SCT008 16/13 A3008 RMK AO2
KHAF 142035Z AUTO 30010G14KT 10SM SCT008 17/13 A3008 RMK AO2
KHAF 142020Z AUTO 30010G16KT 10SM SCT010 SCT015 17/13 A3008 RMK AO2
KHAF 142015Z AUTO 31009G16KT 10SM SCT010 SCT015 16/13 A3008 RMK AO2
KHAF 142000Z AUTO 30010KT 10SM SCT008 SCT015 17/13 A3008 RMK AO2
KHAF 141955Z AUTO 30011KT 10SM SCT008 16/13 A3008 RMK AO2
KHAF 141940Z AUTO 30010KT 10SM SCT008 16/13 A3008 RMK AO2
KHAF 141935Z AUTO 31010KT 10SM SCT008 16/13 A3008 RMK AO2
KHAF 141920Z AUTO 30008KT 10SM SCT008 16/13 A3008 RMK AO2
KHAF 141915Z AUTO 30008KT 10SM FEW008 15/13 A3009 RMK AO2
KHAF 141900Z AUTO 31010KT 10SM FEW008 16/13 A3009 RMK AO2
KHAF 141855Z AUTO 31009KT 10SM CLR 16/13 A3009 RMK AO2
KHAF 141840Z AUTO 31010KT 10SM CLR 16/13 A3008 RMK AO2
KHAF 141835Z AUTO 31010KT 10SM CLR 16/13 A3008 RMK AO2
KHAF 141820Z AUTO 30009KT 10SM CLR 16/13 A3008 RMK AO2
KHAF 141815Z AUTO 29009KT 10SM FEW006 16/13 A3008 RMK AO2
KHAF 141800Z AUTO 31008KT 10SM BKN006 15/13 A3008 RMK AO2
KHAF 141755Z AUTO 31006KT 10SM BKN006 15/13 A3009 RMK AO2
KHAF 141740Z AUTO 31006KT 10SM OVC006 15/13 A3009 RMK AO2
KHAF 141735Z AUTO 30007KT 9SM OVC006 15/13 A3009 RMK AO2
KHAF 141720Z AUTO 32006KT 8SM OVC006 14/13 A3010 RMK AO2
KHAF 141715Z AUTO 31007KT 9SM OVC006 14/13 A3009 RMK AO2
KHAF 141700Z AUTO 30007KT 10SM OVC006 14/13 A3010 RMK AO2
KHAF 141655Z AUTO 31007KT 10SM OVC006 14/13 A3010 RMK AO2
KHAF 141640Z AUTO 30006KT 10SM OVC005 14/14 A3010 RMK AO2
KHAF 141635Z AUTO 31006KT 8SM BKN005 OVC010 14/13 A3010 RMK AO2
KHAF 141620Z AUTO 31007KT 9SM OVC004 14/13 A3010 RMK AO2
KHAF 141615Z AUTO 32006KT 6SM BR OVC004 14/13 A3010 RMK AO2
KHAF 141600Z AUTO 31005KT 3/4SM BR OVC003 14/13 A3009 RMK AO2
KHAF 141555Z AUTO 30005KT 1/2SM FG OVC003 14/13 A3009 RMK AO2
KHAF 141540Z AUTO 31006KT 9SM OVC004 14/14 A3009 RMK AO2
KHAF 141535Z AUTO 31006KT 10SM OVC004 14/14 A3009 RMK AO2
KHAF 141520Z AUTO 30006KT 2 1/2SM BR OVC003 14/13 A3009 RMK AO2
KHAF 141515Z AUTO 30005KT 1 1/4SM BR OVC003 13/13 A3009 RMK AO2
KHAF 141500Z AUTO 30005KT 1 1/4SM BR OVC003 14/13 A3009 RMK AO2
KHAF 141455Z AUTO 30006KT 2SM BR OVC003 14/13 A3009 RMK AO2
KHAF 141440Z AUTO 32005KT 1/2SM FG OVC003 14/13 A3008 RMK AO2
KHAF 141435Z AUTO 33004KT 1/4SM FG OVC003 14/13 A3008 RMK AO2
KHAF 141420Z AUTO 30003KT 1/2SM FG OVC003 14/13 A3008 RMK AO2
KHAF 141415Z AUTO 30004KT 1/2SM FG OVC003 14/13 A3008 RMK AO2
KHAF 141400Z AUTO 00000KT 1/2SM FG OVC003 13/13 A3008 RMK AO2
KHAF 141355Z AUTO 00000KT 1 1/4SM BR OVC003 13/13 A3008 RMK AO2
KHAF 141340Z AUTO 00000KT 1SM BR OVC003 13/13 A3008 RMK AO2
KHAF 141335Z AUTO 31003KT 1SM BR OVC003 13/13 A3008 RMK AO2
KHAF 141320Z AUTO 00000KT 1/4SM FG OVC002 14/13 A3008 RMK AO2
KHAF 141315Z AUTO 00000KT 1/4SM FG OVC002 13/13 A3007 RMK AO2
KHAF 141300Z AUTO 00000KT 3/4SM BR OVC002 13/13 A3007 RMK AO2
KHAF 141255Z AUTO 00000KT 3/4SM BR OVC003 13/13 A3007 RMK AO2
KHAF 141240Z AUTO 00000KT 1 1/2SM BR OVC004 13/13 A3007 RMK AO2
KHAF 141235Z AUTO 00000KT 2SM BR OVC004 13/13 A3007 RMK AO2
KHAF 141220Z AUTO 33003KT 10SM OVC004 13/13 A3006 RMK AO2
KHAF 141215Z AUTO 31003KT 9SM OVC004 13/13 A3006 RMK AO2
KHAF 141200Z AUTO 34003KT 9SM OVC003 13/13 A3006 RMK AO2
KHAF 141155Z AUTO 35003KT 10SM BKN003 OVC007 13/13 A3006 RMK AO2
KHAF 141140Z AUTO 30003KT 1 3/4SM BR OVC003 13/13 A3006 RMK AO2
KHAF 141135Z AUTO 00000KT 1 1/2SM BR OVC003 13/13 A3006 RMK AO2
KHAF 141120Z AUTO 30003KT 2SM BR OVC002 13/13 A3006 RMK AO2